KBTL/BTL METAR and TAF weather

Enter ICAO airport designator
Station Type Date Time Source
KBTL METAR 2018/07/21 12:53 UTC NOAA

KBTL 211253Z 11005KT 4SM BR OVC005 20/19 A2971 RMK AO2 RAB1155E46 CIG 004V008 SLP056 P0001 T02000189 $


Station Type Date Time Source
KBTL Decoded METAR 2018/07/21 12:53 UTC NOAA

W.K.KELLOGG REGIONAL AIRPORT, MI, United States (KBTL) 42-18N 085-15W 290M
Jul 21, 2018 - 08:53 AM EDT / 2018.07.21 1253 UTC
Wind: from the ESE (110 degrees) at 6 MPH (5 KT):0
Visibility: 4 mile(s):0
Sky conditions: overcast
Weather: mist
Precipitation last hour: 0.01 inches
Temperature: 68.0 F (20.0 C)
Dew Point: 66.0 F (18.9 C)
Relative Humidity: 93%
Pressure (altimeter): 29.71 in. Hg (1006 hPa)
ob: KBTL 211253Z 11005KT 4SM BR OVC005 20/19 A2971 RMK AO2 RAB1155E46 CIG 004V008 SLP056 P0001 T02000189
cycle: 13

Station Type Date Time Source
KBTL TAF 2018/07/21 12:46 UTC NOAA

TAF
AMD KBTL 211144Z 2112/2212 13007KT 4SM -SHRA BR VCSH OVC006
TEMPO 2112/2116 1SM +SHRA BR OVC002
FM211600 04010KT P6SM VCSH OVC015
FM212000 03008KT 2SM SHRA VCTS BKN015CB OVC020
FM220100 03006KT 6SM -SHRA OVC008
FM220500 02005KT 3SM BR OVC004


Example: see airport list